Terminal Aerodrome Forecast
Issued by NWS

Current Version | Previous Version | Text Only | Print | Product List | Glossary Off
Versions: 1 2 3 4 5 6 7 8 9 10 11 12 13 14 15 16 17 18 19 20 21 22 23 24 25 26 27 28 29 30 31 32 33 34 35 36 37 38 39 40 41 42 43 44

000
FTUS41 KRNK 300819 AAA
TAFLWB
TAF AMD
KLWB 300819Z 3008/3106 00000KT P6SM BKN060
      TEMPO 3009/3012 3SM BR SCT001
     FM301300 21003KT P6SM SCT020
     FM301700 21005KT P6SM VCTS BKN050CB
     FM310000 VRB03KT P6SM SCT050 BKN100=

USA.gov is the U.S. government's official web portal to all federal, state and local government web resources and services.